VGC weather

Hamilton Municipal Airport
Hamilton, New York, United States

Public forecast

Using degrees Fahrenheit for public forecast. Weather courtesy of forecast.io.

METAR (pilot weather report)

Closest report is Griffiss International Airport, 24.4 nm (45.1 km) NNE. Retrieved 2019/04/19 16:53 UTC (1 hour ago):

KRME 191653Z 21009KT 10SM -RA BKN060 OVC080 22/13 A2964 RMK AO2 RAB23 SLP032 P0000 T02170133

TAF (pilot weather forecast)

Closest forecast is Griffiss International Airport, 24.4 nm (45.1 km) NNE. Retrieved 2019/04/19 12:36 UTC (5 hours ago):

TAF KRME 191135Z 1912/2012 15010KT P6SM BKN035 FM192000 12008KT 6SM -SHRA BR OVC025 FM200000 16006KT 3SM -SHRA BR OVC015 TEMPO 2002/2006 1SM -TSRA BR BKN025CB FM200800 VRB03KT 5SM -SHRA BR OVC012